sensor_id;sensor_type;location;lat;lon;timestamp;temperature;humidity
9219;DHT22;4644;48.858;9.184;2023-03-03T00:02:04;1.90;99.90
9219;DHT22;4644;48.858;9.184;2023-03-03T00:04:33;1.90;99.90
9219;DHT22;4644;48.858;9.184;2023-03-03T00:07:00;1.70;99.90
9219;DHT22;4644;48.858;9.184;2023-03-03T00:09:27;1.70;99.90
9219;DHT22;4644;48.858;9.184;2023-03-03T00:11:55;1.70;99.90
9219;DHT22;4644;48.858;9.184;2023-03-03T00:14:28;1.70;99.90
9219;DHT22;4644;48.858;9.184;2023-03-03T00:16:56;1.60;99.90
9219;DHT22;4644;48.858;9.184;2023-03-03T00:19:23;1.60;99.90
9219;DHT22;4644;48.858;9.184;2023-03-03T00:21:56;1.60;99.90
9219;DHT22;4644;48.858;9.184;2023-03-03T00:24:26;1.50;99.90
9219;DHT22;4644;48.858;9.184;2023-03-03T00:27:09;1.50;99.90
9219;DHT22;4644;48.858;9.184;2023-03-03T00:29:45;1.50;99.90
9219;DHT22;4644;48.858;9.184;2023-03-03T00:32:25;1.40;99.90
9219;DHT22;4644;48.858;9.184;2023-03-03T00:34:53;1.50;99.90
9219;DHT22;4644;48.858;9.184;2023-03-03T00:37:31;1.40;99.90
9219;DHT22;4644;48.858;9.184;2023-03-03T00:40:12;1.40;99.90
9219;DHT22;4644;48.858;9.184;2023-03-03T00:42:45;1.40;99.90
9219;DHT22;4644;48.858;9.184;2023-03-03T00:45:27;1.40;99.90
9219;DHT22;4644;48.858;9.184;2023-03-03T00:47:55;1.40;99.90
9219;DHT22;4644;48.858;9.184;2023-03-03T00:50:31;1.40;99.90
9219;DHT22;4644;48.858;9.184;2023-03-03T00:53:05;1.40;99.90
9219;DHT22;4644;48.858;9.184;2023-03-03T00:55:33;1.40;99.90
9219;DHT22;4644;48.858;9.184;2023-03-03T00:58:00;1.40;99.90
9219;DHT22;4644;48.858;9.184;2023-03-03T01:00:27;1.40;99.90
9219;DHT22;4644;48.858;9.184;2023-03-03T01:02:54;1.40;99.90
9219;DHT22;4644;48.858;9.184;2023-03-03T01:05:22;1.40;99.90
9219;DHT22;4644;48.858;9.184;2023-03-03T01:07:49;1.30;99.90
9219;DHT22;4644;48.858;9.184;2023-03-03T01:10:17;1.40;99.90
9219;DHT22;4644;48.858;9.184;2023-03-03T01:12:45;1.30;99.90
9219;DHT22;4644;48.858;9.184;2023-03-03T01:15:13;1.30;99.90
9219;DHT22;4644;48.858;9.184;2023-03-03T01:17:40;1.30;99.90
9219;DHT22;4644;48.858;9.184;2023-03-03T01:20:09;1.30;99.90
9219;DHT22;4644;48.858;9.184;2023-03-03T01:22:37;1.30;99.90
9219;DHT22;4644;48.858;9.184;2023-03-03T01:25:04;1.30;99.90
9219;DHT22;4644;48.858;9.184;2023-03-03T01:27:34;1.30;99.90
9219;DHT22;4644;48.858;9.184;2023-03-03T01:30:01;1.20;99.90
9219;DHT22;4644;48.858;9.184;2023-03-03T01:32:28;1.20;99.90
9219;DHT22;4644;48.858;9.184;2023-03-03T01:34:55;1.20;99.90
9219;DHT22;4644;48.858;9.184;2023-03-03T01:37:23;1.20;99.90
9219;DHT22;4644;48.858;9.184;2023-03-03T01:39:50;1.20;99.90
9219;DHT22;4644;48.858;9.184;2023-03-03T01:42:18;1.20;99.90
9219;DHT22;4644;48.858;9.184;2023-03-03T01:44:46;1.20;99.90
9219;DHT22;4644;48.858;9.184;2023-03-03T01:47:15;1.20;99.90
9219;DHT22;4644;48.858;9.184;2023-03-03T01:49:46;1.20;99.90
9219;DHT22;4644;48.858;9.184;2023-03-03T01:52:19;1.20;99.90
9219;DHT22;4644;48.858;9.184;2023-03-03T01:54:50;1.20;99.90
9219;DHT22;4644;48.858;9.184;2023-03-03T01:57:22;1.20;99.90
9219;DHT22;4644;48.858;9.184;2023-03-03T01:59:51;1.20;99.90
9219;DHT22;4644;48.858;9.184;2023-03-03T02:02:19;1.20;99.90
9219;DHT22;4644;48.858;9.184;2023-03-03T02:04:46;1.20;99.90
9219;DHT22;4644;48.858;9.184;2023-03-03T02:07:14;1.20;99.90
9219;DHT22;4644;48.858;9.184;2023-03-03T02:09:49;1.20;99.90
9219;DHT22;4644;48.858;9.184;2023-03-03T02:12:18;1.20;99.90
9219;DHT22;4644;48.858;9.184;2023-03-03T02:14:46;1.20;99.90
9219;DHT22;4644;48.858;9.184;2023-03-03T02:17:15;1.10;99.90
9219;DHT22;4644;48.858;9.184;2023-03-03T02:19:47;1.10;99.90
9219;DHT22;4644;48.858;9.184;2023-03-03T02:22:21;1.10;99.90
9219;DHT22;4644;48.858;9.184;2023-03-03T02:24:51;1.10;99.90
9219;DHT22;4644;48.858;9.184;2023-03-03T02:27:21;1.00;99.90
9219;DHT22;4644;48.858;9.184;2023-03-03T02:29:48;1.00;99.90
9219;DHT22;4644;48.858;9.184;2023-03-03T02:32:16;1.00;99.90
9219;DHT22;4644;48.858;9.184;2023-03-03T02:34:48;1.00;99.90
9219;DHT22;4644;48.858;9.184;2023-03-03T02:37:15;1.00;99.90
9219;DHT22;4644;48.858;9.184;2023-03-03T02:39:43;0.90;99.90
9219;DHT22;4644;48.858;9.184;2023-03-03T02:42:15;0.90;99.90
9219;DHT22;4644;48.858;9.184;2023-03-03T02:44:45;0.90;99.90
9219;DHT22;4644;48.858;9.184;2023-03-03T02:47:12;0.90;99.90
9219;DHT22;4644;48.858;9.184;2023-03-03T02:49:39;0.90;99.90
9219;DHT22;4644;48.858;9.184;2023-03-03T02:52:09;0.90;99.90
9219;DHT22;4644;48.858;9.184;2023-03-03T02:54:37;0.90;99.90
9219;DHT22;4644;48.858;9.184;2023-03-03T02:57:04;0.90;99.90
9219;DHT22;4644;48.858;9.184;2023-03-03T02:59:33;0.90;99.90
9219;DHT22;4644;48.858;9.184;2023-03-03T03:02:02;1.00;99.90
9219;DHT22;4644;48.858;9.184;2023-03-03T03:04:29;1.00;99.90
9219;DHT22;4644;48.858;9.184;2023-03-03T03:06:56;1.00;99.90
9219;DHT22;4644;48.858;9.184;2023-03-03T03:09:24;1.00;99.90
9219;DHT22;4644;48.858;9.184;2023-03-03T03:11:53;1.00;99.90
9219;DHT22;4644;48.858;9.184;2023-03-03T03:14:20;1.10;99.90
9219;DHT22;4644;48.858;9.184;2023-03-03T03:16:48;1.10;99.90
9219;DHT22;4644;48.858;9.184;2023-03-03T03:19:16;1.10;99.90
9219;DHT22;4644;48.858;9.184;2023-03-03T03:21:43;1.10;99.90
9219;DHT22;4644;48.858;9.184;2023-03-03T03:24:10;1.10;99.90
9219;DHT22;4644;48.858;9.184;2023-03-03T03:26:37;1.10;99.90
9219;DHT22;4644;48.858;9.184;2023-03-03T03:29:04;1.20;99.90
9219;DHT22;4644;48.858;9.184;2023-03-03T03:31:32;1.20;99.90
9219;DHT22;4644;48.858;9.184;2023-03-03T03:33:59;1.20;99.90
9219;DHT22;4644;48.858;9.184;2023-03-03T03:36:27;1.20;99.90
9219;DHT22;4644;48.858;9.184;2023-03-03T03:38:54;1.20;99.90
9219;DHT22;4644;48.858;9.184;2023-03-03T03:41:22;1.20;99.90
9219;DHT22;4644;48.858;9.184;2023-03-03T03:43:49;1.30;99.90
9219;DHT22;4644;48.858;9.184;2023-03-03T03:46:16;1.20;99.90
9219;DHT22;4644;48.858;9.184;2023-03-03T03:48:43;1.30;99.90
9219;DHT22;4644;48.858;9.184;2023-03-03T03:51:10;1.30;99.90
9219;DHT22;4644;48.858;9.184;2023-03-03T03:53:38;1.30;99.90
9219;DHT22;4644;48.858;9.184;2023-03-03T03:56:06;1.30;99.90
9219;DHT22;4644;48.858;9.184;2023-03-03T03:58:33;1.30;99.90
9219;DHT22;4644;48.858;9.184;2023-03-03T04:01:02;1.30;99.90
9219;DHT22;4644;48.858;9.184;2023-03-03T04:03:29;1.30;99.90
9219;DHT22;4644;48.858;9.184;2023-03-03T04:05:58;1.30;99.90
9219;DHT22;4644;48.858;9.184;2023-03-03T04:08:25;1.30;99.90
9219;DHT22;4644;48.858;9.184;2023-03-03T04:10:53;1.30;99.90
9219;DHT22;4644;48.858;9.184;2023-03-03T04:13:20;1.30;99.90
9219;DHT22;4644;48.858;9.184;2023-03-03T04:15:47;1.30;99.90
9219;DHT22;4644;48.858;9.184;2023-03-03T04:18:14;1.40;99.90
9219;DHT22;4644;48.858;9.184;2023-03-03T04:20:41;1.40;99.90
9219;DHT22;4644;48.858;9.184;2023-03-03T04:23:08;1.40;99.90
9219;DHT22;4644;48.858;9.184;2023-03-03T04:25:35;1.40;99.90
9219;DHT22;4644;48.858;9.184;2023-03-03T04:28:04;1.50;99.90
9219;DHT22;4644;48.858;9.184;2023-03-03T04:30:31;1.50;99.90
9219;DHT22;4644;48.858;9.184;2023-03-03T04:32:58;1.50;99.90
9219;DHT22;4644;48.858;9.184;2023-03-03T04:35:25;1.60;99.90
9219;DHT22;4644;48.858;9.184;2023-03-03T04:37:52;1.60;99.90
9219;DHT22;4644;48.858;9.184;2023-03-03T04:40:19;1.60;99.90
9219;DHT22;4644;48.858;9.184;2023-03-03T04:42:46;1.70;99.90
9219;DHT22;4644;48.858;9.184;2023-03-03T04:45:14;1.60;99.90
9219;DHT22;4644;48.858;9.184;2023-03-03T04:47:41;1.60;99.90
9219;DHT22;4644;48.858;9.184;2023-03-03T04:50:10;1.60;99.90
9219;DHT22;4644;48.858;9.184;2023-03-03T04:52:37;1.70;99.90
9219;DHT22;4644;48.858;9.184;2023-03-03T04:55:05;1.70;99.90
9219;DHT22;4644;48.858;9.184;2023-03-03T04:57:32;1.60;99.90
9219;DHT22;4644;48.858;9.184;2023-03-03T04:59:59;1.70;99.90
9219;DHT22;4644;48.858;9.184;2023-03-03T05:02:28;1.70;99.90
9219;DHT22;4644;48.858;9.184;2023-03-03T05:04:55;1.80;99.90
9219;DHT22;4644;48.858;9.184;2023-03-03T05:07:22;1.80;99.90
9219;DHT22;4644;48.858;9.184;2023-03-03T05:09:50;1.80;99.90
9219;DHT22;4644;48.858;9.184;2023-03-03T05:12:17;1.90;99.90
9219;DHT22;4644;48.858;9.184;2023-03-03T05:14:44;1.80;99.90
9219;DHT22;4644;48.858;9.184;2023-03-03T05:17:11;1.90;99.90
9219;DHT22;4644;48.858;9.184;2023-03-03T05:19:39;1.80;99.90
9219;DHT22;4644;48.858;9.184;2023-03-03T05:22:07;1.90;99.90
9219;DHT22;4644;48.858;9.184;2023-03-03T05:24:35;1.80;99.90
9219;DHT22;4644;48.858;9.184;2023-03-03T05:27:02;1.80;99.90
9219;DHT22;4644;48.858;9.184;2023-03-03T05:29:29;1.90;99.90
9219;DHT22;4644;48.858;9.184;2023-03-03T05:31:58;1.80;99.90
9219;DHT22;4644;48.858;9.184;2023-03-03T05:34:25;1.90;99.90
9219;DHT22;4644;48.858;9.184;2023-03-03T05:36:53;1.90;99.90
9219;DHT22;4644;48.858;9.184;2023-03-03T05:39:20;1.90;99.90
9219;DHT22;4644;48.858;9.184;2023-03-03T05:41:48;1.90;99.90
9219;DHT22;4644;48.858;9.184;2023-03-03T05:44:15;1.90;99.90
9219;DHT22;4644;48.858;9.184;2023-03-03T05:46:42;1.90;99.90
9219;DHT22;4644;48.858;9.184;2023-03-03T05:49:09;1.90;99.90
9219;DHT22;4644;48.858;9.184;2023-03-03T05:51:36;1.90;99.90
9219;DHT22;4644;48.858;9.184;2023-03-03T05:54:05;2.00;99.90
9219;DHT22;4644;48.858;9.184;2023-03-03T05:56:32;2.00;99.90
9219;DHT22;4644;48.858;9.184;2023-03-03T05:58:59;2.00;99.90
9219;DHT22;4644;48.858;9.184;2023-03-03T06:01:26;2.00;99.90
9219;DHT22;4644;48.858;9.184;2023-03-03T06:03:53;2.00;99.90
9219;DHT22;4644;48.858;9.184;2023-03-03T06:06:20;2.10;99.90
9219;DHT22;4644;48.858;9.184;2023-03-03T06:08:47;2.10;99.90
9219;DHT22;4644;48.858;9.184;2023-03-03T06:11:16;2.10;99.90
9219;DHT22;4644;48.858;9.184;2023-03-03T06:13:44;2.10;99.90
9219;DHT22;4644;48.858;9.184;2023-03-03T06:16:11;2.10;99.90
9219;DHT22;4644;48.858;9.184;2023-03-03T06:18:38;2.10;99.90
9219;DHT22;4644;48.858;9.184;2023-03-03T06:21:05;2.10;99.90
9219;DHT22;4644;48.858;9.184;2023-03-03T06:23:31;2.10;99.90
9219;DHT22;4644;48.858;9.184;2023-03-03T06:25:59;2.10;99.90
9219;DHT22;4644;48.858;9.184;2023-03-03T06:28:27;2.10;99.90
9219;DHT22;4644;48.858;9.184;2023-03-03T06:30:54;2.20;99.90
9219;DHT22;4644;48.858;9.184;2023-03-03T06:33:21;2.10;99.90
9219;DHT22;4644;48.858;9.184;2023-03-03T06:35:49;2.10;99.90
9219;DHT22;4644;48.858;9.184;2023-03-03T06:38:16;2.10;99.90
9219;DHT22;4644;48.858;9.184;2023-03-03T06:40:44;2.20;99.90
9219;DHT22;4644;48.858;9.184;2023-03-03T06:43:11;2.20;99.90
9219;DHT22;4644;48.858;9.184;2023-03-03T06:45:39;2.20;99.90
9219;DHT22;4644;48.858;9.184;2023-03-03T06:48:07;2.20;99.90
9219;DHT22;4644;48.858;9.184;2023-03-03T06:50:35;2.20;99.90
9219;DHT22;4644;48.858;9.184;2023-03-03T06:53:10;2.30;99.90
9219;DHT22;4644;48.858;9.184;2023-03-03T06:55:38;2.30;99.90
9219;DHT22;4644;48.858;9.184;2023-03-03T06:58:10;2.30;99.90
9219;DHT22;4644;48.858;9.184;2023-03-03T07:00:40;2.40;99.90
9219;DHT22;4644;48.858;9.184;2023-03-03T07:03:13;2.40;99.90
9219;DHT22;4644;48.858;9.184;2023-03-03T07:05:40;2.40;99.90
9219;DHT22;4644;48.858;9.184;2023-03-03T07:08:12;2.40;99.90
9219;DHT22;4644;48.858;9.184;2023-03-03T07:10:39;2.40;99.90
9219;DHT22;4644;48.858;9.184;2023-03-03T07:13:17;2.50;99.90
9219;DHT22;4644;48.858;9.184;2023-03-03T07:15:49;2.50;99.90
9219;DHT22;4644;48.858;9.184;2023-03-03T07:18:30;2.60;99.90
9219;DHT22;4644;48.858;9.184;2023-03-03T07:21:11;2.60;99.90
9219;DHT22;4644;48.858;9.184;2023-03-03T07:23:40;2.60;99.90
9219;DHT22;4644;48.858;9.184;2023-03-03T07:26:11;2.60;99.90
9219;DHT22;4644;48.858;9.184;2023-03-03T07:28:40;2.60;99.90
9219;DHT22;4644;48.858;9.184;2023-03-03T07:31:25;2.60;99.90
9219;DHT22;4644;48.858;9.184;2023-03-03T07:33:55;2.70;99.90
9219;DHT22;4644;48.858;9.184;2023-03-03T07:36:27;2.70;99.90
9219;DHT22;4644;48.858;9.184;2023-03-03T07:38:56;2.80;99.90
9219;DHT22;4644;48.858;9.184;2023-03-03T07:41:24;2.80;99.90
9219;DHT22;4644;48.858;9.184;2023-03-03T07:43:53;2.90;99.90
9219;DHT22;4644;48.858;9.184;2023-03-03T07:46:25;3.00;99.90
9219;DHT22;4644;48.858;9.184;2023-03-03T07:48:54;3.00;99.90
9219;DHT22;4644;48.858;9.184;2023-03-03T07:51:22;3.10;99.90
9219;DHT22;4644;48.858;9.184;2023-03-03T07:53:53;3.10;99.90
9219;DHT22;4644;48.858;9.184;2023-03-03T07:56:29;3.20;99.90
9219;DHT22;4644;48.858;9.184;2023-03-03T07:58:57;3.30;99.90
9219;DHT22;4644;48.858;9.184;2023-03-03T08:01:40;3.30;99.90
9219;DHT22;4644;48.858;9.184;2023-03-03T08:04:19;3.40;99.90
9219;DHT22;4644;48.858;9.184;2023-03-03T08:06:49;3.40;99.90
9219;DHT22;4644;48.858;9.184;2023-03-03T08:12:37;3.60;99.90
9219;DHT22;4644;48.858;9.184;2023-03-03T08:15:23;3.80;99.90
9219;DHT22;4644;48.858;9.184;2023-03-03T08:17:53;3.90;99.90
9219;DHT22;4644;48.858;9.184;2023-03-03T08:20:44;4.10;99.90
9219;DHT22;4644;48.858;9.184;2023-03-03T08:23:12;4.50;99.90
9219;DHT22;4644;48.858;9.184;2023-03-03T08:25:40;4.90;99.90
9219;DHT22;4644;48.858;9.184;2023-03-03T08:28:07;5.30;99.90
9219;DHT22;4644;48.858;9.184;2023-03-03T08:30:34;5.30;99.90
9219;DHT22;4644;48.858;9.184;2023-03-03T08:33:03;5.40;99.90
9219;DHT22;4644;48.858;9.184;2023-03-03T08:35:30;5.50;99.90
9219;DHT22;4644;48.858;9.184;2023-03-03T08:37:57;5.40;99.90
9219;DHT22;4644;48.858;9.184;2023-03-03T08:40:24;5.60;99.90
9219;DHT22;4644;48.858;9.184;2023-03-03T08:42:52;6.00;99.90
9219;DHT22;4644;48.858;9.184;2023-03-03T08:45:19;6.30;99.90
9219;DHT22;4644;48.858;9.184;2023-03-03T08:47:46;6.60;99.90
9219;DHT22;4644;48.858;9.184;2023-03-03T08:50:15;6.70;99.90
9219;DHT22;4644;48.858;9.184;2023-03-03T08:52:43;6.80;99.90
9219;DHT22;4644;48.858;9.184;2023-03-03T08:55:10;7.00;99.90
9219;DHT22;4644;48.858;9.184;2023-03-03T08:57:37;7.00;99.90
9219;DHT22;4644;48.858;9.184;2023-03-03T09:00:06;7.00;99.90
9219;DHT22;4644;48.858;9.184;2023-03-03T09:02:33;7.10;99.90
9219;DHT22;4644;48.858;9.184;2023-03-03T09:05:00;7.30;99.90
9219;DHT22;4644;48.858;9.184;2023-03-03T09:07:29;7.40;99.90
9219;DHT22;4644;48.858;9.184;2023-03-03T09:09:56;7.60;99.90
9219;DHT22;4644;48.858;9.184;2023-03-03T09:12:28;7.70;99.90
9219;DHT22;4644;48.858;9.184;2023-03-03T09:14:57;7.90;99.90
9219;DHT22;4644;48.858;9.184;2023-03-03T09:17:29;7.90;99.80
9219;DHT22;4644;48.858;9.184;2023-03-03T09:20:09;8.00;99.90
9219;DHT22;4644;48.858;9.184;2023-03-03T09:22:44;8.20;99.30
9219;DHT22;4644;48.858;9.184;2023-03-03T09:25:20;8.30;99.90
9219;DHT22;4644;48.858;9.184;2023-03-03T09:27:48;8.70;99.90
9219;DHT22;4644;48.858;9.184;2023-03-03T09:30:32;9.00;98.50
9219;DHT22;4644;48.858;9.184;2023-03-03T09:33:01;9.20;99.70
9219;DHT22;4644;48.858;9.184;2023-03-03T09:35:42;8.50;98.20
9219;DHT22;4644;48.858;9.184;2023-03-03T09:38:24;8.10;99.10
9219;DHT22;4644;48.858;9.184;2023-03-03T09:41:04;7.70;98.80
9219;DHT22;4644;48.858;9.184;2023-03-03T09:43:42;7.60;99.90
9219;DHT22;4644;48.858;9.184;2023-03-03T09:46:21;7.50;99.90
9219;DHT22;4644;48.858;9.184;2023-03-03T09:49:01;7.70;99.90
9219;DHT22;4644;48.858;9.184;2023-03-03T09:51:50;7.90;99.30
9219;DHT22;4644;48.858;9.184;2023-03-03T09:54:31;8.00;99.70
9219;DHT22;4644;48.858;9.184;2023-03-03T09:57:08;8.30;99.30
9219;DHT22;4644;48.858;9.184;2023-03-03T09:59:48;8.30;98.30
9219;DHT22;4644;48.858;9.184;2023-03-03T10:02:34;8.50;99.90
9219;DHT22;4644;48.858;9.184;2023-03-03T10:05:11;8.70;97.30
9219;DHT22;4644;48.858;9.184;2023-03-03T10:07:48;8.90;97.30
9219;DHT22;4644;48.858;9.184;2023-03-03T10:10:27;9.10;97.00
9219;DHT22;4644;48.858;9.184;2023-03-03T10:13:05;9.10;97.10
9219;DHT22;4644;48.858;9.184;2023-03-03T10:15:41;8.90;96.80
9219;DHT22;4644;48.858;9.184;2023-03-03T10:18:23;8.70;96.80
9219;DHT22;4644;48.858;9.184;2023-03-03T10:21:01;8.60;97.30
9219;DHT22;4644;48.858;9.184;2023-03-03T10:24:01;8.40;96.70
9219;DHT22;4644;48.858;9.184;2023-03-03T10:26:49;8.60;97.10
9219;DHT22;4644;48.858;9.184;2023-03-03T10:29:34;8.70;96.50
9219;DHT22;4644;48.858;9.184;2023-03-03T10:32:33;8.70;96.40
9219;DHT22;4644;48.858;9.184;2023-03-03T10:35:29;8.90;96.20
9219;DHT22;4644;48.858;9.184;2023-03-03T10:38:27;8.60;96.50
9219;DHT22;4644;48.858;9.184;2023-03-03T10:41:09;9.00;95.60
9219;DHT22;4644;48.858;9.184;2023-03-03T10:43:51;9.20;95.30
9219;DHT22;4644;48.858;9.184;2023-03-03T10:46:33;9.50;96.80
9219;DHT22;4644;48.858;9.184;2023-03-03T10:49:26;9.70;94.60
9219;DHT22;4644;48.858;9.184;2023-03-03T10:52:11;10.20;93.30
9219;DHT22;4644;48.858;9.184;2023-03-03T10:54:58;10.40;92.60
9219;DHT22;4644;48.858;9.184;2023-03-03T10:57:33;10.80;92.60
9219;DHT22;4644;48.858;9.184;2023-03-03T11:00:18;10.80;90.20
9219;DHT22;4644;48.858;9.184;2023-03-03T11:05:49;11.20;90.20
9219;DHT22;4644;48.858;9.184;2023-03-03T11:08:18;11.10;90.10
9219;DHT22;4644;48.858;9.184;2023-03-03T11:10:51;11.30;90.20
9219;DHT22;4644;48.858;9.184;2023-03-03T11:13:24;11.00;88.30
9219;DHT22;4644;48.858;9.184;2023-03-03T11:16:13;10.80;90.30
9219;DHT22;4644;48.858;9.184;2023-03-03T11:21:40;10.80;89.70
9219;DHT22;4644;48.858;9.184;2023-03-03T11:24:17;10.70;90.10
9219;DHT22;4644;48.858;9.184;2023-03-03T11:27:05;10.20;89.70
9219;DHT22;4644;48.858;9.184;2023-03-03T11:29:55;10.10;90.20
9219;DHT22;4644;48.858;9.184;2023-03-03T11:32:33;9.80;90.30
9219;DHT22;4644;48.858;9.184;2023-03-03T11:35:18;9.50;90.90
9219;DHT22;4644;48.858;9.184;2023-03-03T11:37:57;9.50;92.90
9219;DHT22;4644;48.858;9.184;2023-03-03T11:40:34;9.40;91.10
9219;DHT22;4644;48.858;9.184;2023-03-03T11:43:10;9.50;91.20
9219;DHT22;4644;48.858;9.184;2023-03-03T11:45:41;9.60;91.40
9219;DHT22;4644;48.858;9.184;2023-03-03T11:48:16;9.60;91.10
9219;DHT22;4644;48.858;9.184;2023-03-03T11:50:52;9.70;93.10
9219;DHT22;4644;48.858;9.184;2023-03-03T11:53:31;9.80;91.40
9219;DHT22;4644;48.858;9.184;2023-03-03T11:56:09;9.80;91.00
9219;DHT22;4644;48.858;9.184;2023-03-03T11:58:43;9.60;90.70
9219;DHT22;4644;48.858;9.184;2023-03-03T12:01:19;9.70;91.10
9219;DHT22;4644;48.858;9.184;2023-03-03T12:03:52;9.60;92.30
9219;DHT22;4644;48.858;9.184;2023-03-03T12:06:25;9.70;91.30
9219;DHT22;4644;48.858;9.184;2023-03-03T12:09:15;9.90;91.10
9219;DHT22;4644;48.858;9.184;2023-03-03T12:11:47;9.90;91.10
9219;DHT22;4644;48.858;9.184;2023-03-03T12:14:29;10.20;89.70
9219;DHT22;4644;48.858;9.184;2023-03-03T12:17:04;10.30;89.50
9219;DHT22;4644;48.858;9.184;2023-03-03T12:19:47;10.20;89.30
9219;DHT22;4644;48.858;9.184;2023-03-03T12:22:30;10.60;88.80
9219;DHT22;4644;48.858;9.184;2023-03-03T12:25:18;10.70;88.10
9219;DHT22;4644;48.858;9.184;2023-03-03T12:27:51;10.90;89.70
9219;DHT22;4644;48.858;9.184;2023-03-03T12:30:28;11.10;87.20
9219;DHT22;4644;48.858;9.184;2023-03-03T12:33:18;11.40;86.30
9219;DHT22;4644;48.858;9.184;2023-03-03T12:35:57;11.40;85.10
9219;DHT22;4644;48.858;9.184;2023-03-03T12:38:35;11.10;86.50
9219;DHT22;4644;48.858;9.184;2023-03-03T12:41:07;11.10;87.50
9219;DHT22;4644;48.858;9.184;2023-03-03T12:43:46;11.30;87.40
9219;DHT22;4644;48.858;9.184;2023-03-03T12:46:21;11.20;83.80
9219;DHT22;4644;48.858;9.184;2023-03-03T12:48:50;11.10;85.60
9219;DHT22;4644;48.858;9.184;2023-03-03T12:51:35;10.90;84.80
9219;DHT22;4644;48.858;9.184;2023-03-03T12:56:54;10.60;85.70
9219;DHT22;4644;48.858;9.184;2023-03-03T12:59:30;10.60;87.40
9219;DHT22;4644;48.858;9.184;2023-03-03T13:02:14;10.60;88.00
9219;DHT22;4644;48.858;9.184;2023-03-03T13:04:49;10.50;86.20
9219;DHT22;4644;48.858;9.184;2023-03-03T13:07:25;10.40;87.90
9219;DHT22;4644;48.858;9.184;2023-03-03T13:10:06;10.20;86.90
9219;DHT22;4644;48.858;9.184;2023-03-03T13:12:38;10.20;86.90
9219;DHT22;4644;48.858;9.184;2023-03-03T13:15:12;10.10;85.50
9219;DHT22;4644;48.858;9.184;2023-03-03T13:17:47;10.10;90.30
9219;DHT22;4644;48.858;9.184;2023-03-03T13:20:22;10.00;87.80
9219;DHT22;4644;48.858;9.184;2023-03-03T13:22:56;10.00;87.70
9219;DHT22;4644;48.858;9.184;2023-03-03T13:25:49;9.90;89.70
9219;DHT22;4644;48.858;9.184;2023-03-03T13:28:24;9.80;90.00
9219;DHT22;4644;48.858;9.184;2023-03-03T13:30:56;9.70;90.10
9219;DHT22;4644;48.858;9.184;2023-03-03T13:33:26;9.60;90.00
9219;DHT22;4644;48.858;9.184;2023-03-03T13:35:55;9.60;90.20
9219;DHT22;4644;48.858;9.184;2023-03-03T13:38:27;9.70;90.00
9219;DHT22;4644;48.858;9.184;2023-03-03T13:41:06;9.80;90.10
9219;DHT22;4644;48.858;9.184;2023-03-03T13:43:42;9.90;90.50
9219;DHT22;4644;48.858;9.184;2023-03-03T13:46:15;9.90;90.00
9219;DHT22;4644;48.858;9.184;2023-03-03T13:51:41;9.70;90.00
9219;DHT22;4644;48.858;9.184;2023-03-03T13:54:20;9.70;90.20
9219;DHT22;4644;48.858;9.184;2023-03-03T13:57:11;9.60;90.20
9219;DHT22;4644;48.858;9.184;2023-03-03T13:59:50;9.60;90.50
9219;DHT22;4644;48.858;9.184;2023-03-03T14:02:36;9.70;90.60
9219;DHT22;4644;48.858;9.184;2023-03-03T14:05:12;9.70;90.80
9219;DHT22;4644;48.858;9.184;2023-03-03T14:07:44;9.80;90.40
9219;DHT22;4644;48.858;9.184;2023-03-03T14:10:21;9.80;91.60
9219;DHT22;4644;48.858;9.184;2023-03-03T14:12:57;9.80;90.10
9219;DHT22;4644;48.858;9.184;2023-03-03T14:15:28;9.70;91.60
9219;DHT22;4644;48.858;9.184;2023-03-03T14:18:13;9.80;90.60
9219;DHT22;4644;48.858;9.184;2023-03-03T14:20:46;9.70;90.30
9219;DHT22;4644;48.858;9.184;2023-03-03T14:23:17;9.60;90.50
9219;DHT22;4644;48.858;9.184;2023-03-03T14:25:57;9.70;90.60
9219;DHT22;4644;48.858;9.184;2023-03-03T14:28:26;9.70;90.20
9219;DHT22;4644;48.858;9.184;2023-03-03T14:30:56;9.70;90.40
9219;DHT22;4644;48.858;9.184;2023-03-03T14:33:28;9.70;90.90
9219;DHT22;4644;48.858;9.184;2023-03-03T14:36:11;9.70;90.90
9219;DHT22;4644;48.858;9.184;2023-03-03T14:38:46;9.70;90.80
9219;DHT22;4644;48.858;9.184;2023-03-03T14:41:34;9.70;90.60
9219;DHT22;4644;48.858;9.184;2023-03-03T14:44:22;9.70;91.20
9219;DHT22;4644;48.858;9.184;2023-03-03T14:47:02;9.70;91.20
9219;DHT22;4644;48.858;9.184;2023-03-03T14:49:33;9.70;90.90
9219;DHT22;4644;48.858;9.184;2023-03-03T14:52:02;9.80;90.60
9219;DHT22;4644;48.858;9.184;2023-03-03T14:54:36;9.80;90.90
9219;DHT22;4644;48.858;9.184;2023-03-03T14:57:12;9.80;90.60
9219;DHT22;4644;48.858;9.184;2023-03-03T14:59:55;9.80;90.30
9219;DHT22;4644;48.858;9.184;2023-03-03T15:02:34;9.80;90.40
9219;DHT22;4644;48.858;9.184;2023-03-03T15:05:15;9.80;90.80
9219;DHT22;4644;48.858;9.184;2023-03-03T15:07:43;9.80;90.60
9219;DHT22;4644;48.858;9.184;2023-03-03T15:10:11;9.80;90.50
9219;DHT22;4644;48.858;9.184;2023-03-03T15:12:48;9.80;90.00
9219;DHT22;4644;48.858;9.184;2023-03-03T15:15:18;9.80;90.90
9219;DHT22;4644;48.858;9.184;2023-03-03T15:17:55;9.70;90.80
9219;DHT22;4644;48.858;9.184;2023-03-03T15:20:36;9.70;90.60
9219;DHT22;4644;48.858;9.184;2023-03-03T15:23:31;9.60;90.50
9219;DHT22;4644;48.858;9.184;2023-03-03T15:26:05;9.60;91.10
9219;DHT22;4644;48.858;9.184;2023-03-03T15:28:44;9.60;90.70
9219;DHT22;4644;48.858;9.184;2023-03-03T15:31:23;9.70;91.20
9219;DHT22;4644;48.858;9.184;2023-03-03T15:34:02;9.70;90.50
9219;DHT22;4644;48.858;9.184;2023-03-03T15:36:37;9.70;90.50
9219;DHT22;4644;48.858;9.184;2023-03-03T15:39:18;9.60;90.40
9219;DHT22;4644;48.858;9.184;2023-03-03T15:41:52;9.60;90.50
9219;DHT22;4644;48.858;9.184;2023-03-03T15:44:31;9.60;91.20
9219;DHT22;4644;48.858;9.184;2023-03-03T15:47:16;9.50;91.00
9219;DHT22;4644;48.858;9.184;2023-03-03T15:50:11;9.60;91.30
9219;DHT22;4644;48.858;9.184;2023-03-03T15:52:50;9.50;91.10
9219;DHT22;4644;48.858;9.184;2023-03-03T15:55:31;9.40;91.40
9219;DHT22;4644;48.858;9.184;2023-03-03T15:58:10;9.40;91.00
9219;DHT22;4644;48.858;9.184;2023-03-03T16:00:53;9.40;91.00
9219;DHT22;4644;48.858;9.184;2023-03-03T16:03:28;9.30;91.30
9219;DHT22;4644;48.858;9.184;2023-03-03T16:06:01;9.30;91.30
9219;DHT22;4644;48.858;9.184;2023-03-03T16:08:39;9.20;91.20
9219;DHT22;4644;48.858;9.184;2023-03-03T16:11:13;9.20;91.30
9219;DHT22;4644;48.858;9.184;2023-03-03T16:14:03;9.20;91.50
9219;DHT22;4644;48.858;9.184;2023-03-03T16:16:42;9.10;91.40
9219;DHT22;4644;48.858;9.184;2023-03-03T16:19:19;9.10;91.80
9219;DHT22;4644;48.858;9.184;2023-03-03T16:22:02;9.00;91.70
9219;DHT22;4644;48.858;9.184;2023-03-03T16:24:42;9.00;92.00
9219;DHT22;4644;48.858;9.184;2023-03-03T16:27:15;8.90;92.40
9219;DHT22;4644;48.858;9.184;2023-03-03T16:29:51;8.90;92.50
9219;DHT22;4644;48.858;9.184;2023-03-03T16:32:31;8.80;92.50
9219;DHT22;4644;48.858;9.184;2023-03-03T16:35:18;8.70;92.70
9219;DHT22;4644;48.858;9.184;2023-03-03T16:37:53;8.60;92.90
9219;DHT22;4644;48.858;9.184;2023-03-03T16:40:25;8.60;92.80
9219;DHT22;4644;48.858;9.184;2023-03-03T16:42:58;8.50;93.10
9219;DHT22;4644;48.858;9.184;2023-03-03T16:45:33;8.40;93.20
9219;DHT22;4644;48.858;9.184;2023-03-03T16:48:19;8.40;93.60
9219;DHT22;4644;48.858;9.184;2023-03-03T16:51:00;8.30;93.20
9219;DHT22;4644;48.858;9.184;2023-03-03T16:53:42;8.20;93.30
9219;DHT22;4644;48.858;9.184;2023-03-03T16:56:18;8.20;93.50
9219;DHT22;4644;48.858;9.184;2023-03-03T16:59:02;8.10;93.80
9219;DHT22;4644;48.858;9.184;2023-03-03T17:01:37;8.00;94.10
9219;DHT22;4644;48.858;9.184;2023-03-03T17:04:12;8.00;94.10
9219;DHT22;4644;48.858;9.184;2023-03-03T17:06:49;7.90;94.30
9219;DHT22;4644;48.858;9.184;2023-03-03T17:09:47;7.80;94.50
9219;DHT22;4644;48.858;9.184;2023-03-03T17:15:37;7.50;95.00